Terminal Aerodrome Forecast
Issued by NWS Sioux Falls, SD

Home | Current Version | Previous Version | Text Only | Print | Product List | Glossary Off
Versions: 1 2 3 4 5 6 7 8 9 10 11

276
FTUS43 KFSD 300521
TAFHON
TAF
KHON 300521Z 3006/3106 13009KT P6SM BKN035
      TEMPO 3006/3008 BKN025
     FM300800 08006KT P6SM BKN045
     FM301600 08008KT P6SM SCT060=

USA.gov is the U.S. government's official web portal to all federal, state and local government web resources and services.